Alderpoint, California
Current Conditions -  °F | °C
As of 10:15 PM on Saturday 22 Nov 2014 (Local Time) from KFOT Reporting Station
Clear Clear  
Wind Chill: 43°   Ceiling: Unl
Heat Index: 46°   Visibility: 7mi
Dew Point: 46°   Wind: 7mph
Humidity: 100%   Direction: 140°SE
Pressure: 30.32"   Gusts: NA
Location:  40.18°N, 123.61°W
Report Text: KFOT 230615Z AUTO 14006KT 7SM CLR 08/08 A3032 RMK AO1
Loading
Personal Weather Stations






























Interactive Weather Map New forecast layout! Learn more

10-Day Weather Forecast

Advertisements
Track Severe Weather on mobile